Time;durP1;ratioP1;P1;durP2;ratioP2;P2;SDS_P1;SDS_P2;PMS_P1;PMS_P2;Temp;Humidity;BMP_temperature;BMP_pressure;BME280_temperature;BME280_humidity;BME280_pressure;Samples;Min_cycle;Max_cycle;Signal;HPM_P1;HPM_P2
2022/04/22 00:00:28;;;;;;;5.30;3.33;;;11.20;99.90;;;;;;5003607;28;20561;-73
2022/04/22 00:02:55;;;;;;;7.00;3.80;;;11.30;99.90;;;;;;5009750;28;21095;-72
2022/04/22 00:05:22;;;;;;;6.23;4.60;;;11.20;99.90;;;;;;5016678;28;20446;-73
2022/04/22 00:07:49;;;;;;;7.90;4.47;;;11.20;99.90;;;;;;5006774;28;20476;-72
2022/04/22 00:10:16;;;;;;;9.10;5.63;;;11.20;99.90;;;;;;5011751;28;20546;-73
2022/04/22 00:12:44;;;;;;;8.87;4.70;;;11.20;99.90;;;;;;5011550;28;20544;-73
2022/04/22 00:15:13;;;;;;;5.53;4.20;;;11.30;99.90;;;;;;5002666;28;20442;-72
2022/04/22 00:17:42;;;;;;;8.63;4.57;;;11.20;99.90;;;;;;5013159;28;20986;-73
2022/04/22 00:20:10;;;;;;;2.80;2.27;;;11.20;99.90;;;;;;5006331;28;20471;-72
2022/04/22 00:22:39;;;;;;;7.27;3.53;;;11.10;99.90;;;;;;5004464;28;20464;-71
2022/04/22 00:25:08;;;;;;;4.13;3.30;;;11.10;99.90;;;;;;5011561;28;20451;-71
2022/04/22 00:27:34;;;;;;;5.33;4.80;;;11.10;99.90;;;;;;5010920;28;20868;-72
2022/04/22 00:30:01;;;;;;;9.93;3.60;;;11.10;99.90;;;;;;5011859;28;21003;-73
2022/04/22 00:32:29;;;;;;;7.63;4.30;;;11.20;99.90;;;;;;5013763;28;20487;-73
2022/04/22 00:34:55;;;;;;;5.93;4.33;;;11.20;99.90;;;;;;5016985;28;20470;-72
2022/04/22 00:37:22;;;;;;;3.50;3.03;;;11.30;99.90;;;;;;5013176;28;20511;-72
2022/04/22 00:39:49;;;;;;;4.50;3.13;;;11.30;99.90;;;;;;5003426;28;20471;-72
2022/04/22 00:42:16;;;;;;;9.47;5.63;;;11.40;99.90;;;;;;5008032;28;22026;-72
2022/04/22 00:44:43;;;;;;;5.07;3.83;;;11.40;99.90;;;;;;5013420;28;20438;-72
2022/04/22 00:47:09;;;;;;;5.07;3.17;;;11.40;99.90;;;;;;5012493;28;20578;-73
2022/04/22 00:49:37;;;;;;;6.60;3.53;;;11.40;99.90;;;;;;5011264;28;21020;-72
2022/04/22 00:52:05;;;;;;;4.87;3.50;;;11.40;99.90;;;;;;5016305;28;20436;-73
2022/04/22 00:54:33;;;;;;;2.70;2.50;;;11.50;99.90;;;;;;5013092;28;20470;-72
2022/04/22 00:57:00;;;;;;;8.53;4.97;;;11.50;99.90;;;;;;5017908;28;20510;-72
2022/04/22 00:59:29;;;;;;;4.37;3.63;;;11.50;99.90;;;;;;5013433;28;21231;-72
2022/04/22 01:01:55;;;;;;;6.47;4.90;;;11.50;99.90;;;;;;5004894;28;21131;-73
2022/04/22 01:09:52;;;;;;;6.70;4.07;;;11.50;99.90;;;;;;5009611;28;20574;-72
2022/04/22 01:12:20;;;;;;;8.47;4.57;;;11.50;99.90;;;;;;5020172;28;20653;-74
2022/04/22 01:14:47;;;;;;;5.90;4.00;;;11.60;99.90;;;;;;5016801;28;20445;-73
2022/04/22 01:17:13;;;;;;;3.97;2.97;;;11.60;99.90;;;;;;5012168;28;20492;-73
2022/04/22 01:19:41;;;;;;;8.80;5.10;;;11.70;99.90;;;;;;5009353;28;20929;-72
2022/04/22 01:22:09;;;;;;;8.53;5.73;;;11.60;99.90;;;;;;5006793;28;20885;-72
2022/04/22 01:24:37;;;;;;;6.90;5.07;;;11.50;99.90;;;;;;5010692;28;20528;-72
2022/04/22 01:27:05;;;;;;;6.30;4.07;;;11.50;99.90;;;;;;5010333;28;20502;-72
2022/04/22 01:29:32;;;;;;;7.60;5.40;;;11.50;99.90;;;;;;5017273;28;20858;-73
2022/04/22 01:32:00;;;;;;;6.77;4.40;;;11.30;99.90;;;;;;5011558;28;20813;-72
2022/04/22 01:34:27;;;;;;;13.70;5.57;;;11.30;99.90;;;;;;5014888;28;20465;-73
2022/04/22 01:36:54;;;;;;;6.60;4.47;;;11.30;99.90;;;;;;5010265;28;20429;-72
2022/04/22 01:39:22;;;;;;;10.10;5.23;;;11.30;99.90;;;;;;5013479;28;20459;-73
2022/04/22 01:41:48;;;;;;;6.73;5.53;;;11.20;99.90;;;;;;5015833;28;20534;-72
2022/04/22 01:44:16;;;;;;;8.47;4.03;;;11.20;99.90;;;;;;5017186;28;20435;-72
2022/04/22 01:46:43;;;;;;;7.60;5.90;;;11.10;99.90;;;;;;5020851;28;20540;-72
2022/04/22 01:49:09;;;;;;;11.30;6.30;;;11.10;99.90;;;;;;5019965;28;20460;-72
2022/04/22 01:51:36;;;;;;;6.93;5.27;;;11.10;99.90;;;;;;5014411;28;20481;-72
2022/04/22 01:54:03;;;;;;;10.50;4.63;;;11.10;99.90;;;;;;5018703;28;20449;-72
2022/04/22 01:56:31;;;;;;;6.93;4.63;;;11.00;99.90;;;;;;5009354;28;20460;-72
2022/04/22 01:58:58;;;;;;;7.20;3.77;;;10.90;99.90;;;;;;5015106;28;20520;-72
2022/04/22 02:01:25;;;;;;;4.23;2.97;;;10.90;99.90;;;;;;5005804;28;20905;-73
2022/04/22 02:03:51;;;;;;;10.50;4.87;;;10.90;99.90;;;;;;5012974;28;20460;-72
2022/04/22 02:06:18;;;;;;;11.83;6.90;;;10.90;99.90;;;;;;5013617;28;20845;-73
2022/04/22 02:08:45;;;;;;;5.80;4.37;;;10.80;99.90;;;;;;5007985;28;20504;-73
2022/04/22 02:11:13;;;;;;;7.53;5.93;;;10.80;99.90;;;;;;5014449;28;20452;-73
2022/04/22 02:13:40;;;;;;;9.53;4.63;;;10.90;99.90;;;;;;5006992;28;20887;-73
2022/04/22 02:16:09;;;;;;;7.70;5.77;;;10.80;99.90;;;;;;5014665;28;20438;-73
2022/04/22 02:18:38;;;;;;;10.73;4.60;;;10.80;99.90;;;;;;5016387;28;20454;-73
2022/04/22 02:21:05;;;;;;;11.87;5.40;;;10.80;99.90;;;;;;5008603;28;21503;-73
2022/04/22 02:23:32;;;;;;;10.63;6.33;;;10.80;99.90;;;;;;5012347;28;20561;-72
2022/04/22 02:25:58;;;;;;;6.57;3.53;;;10.80;99.90;;;;;;5011557;28;20496;-73
2022/04/22 02:28:33;;;;;;;10.37;6.17;;;10.90;99.90;;;;;;5013583;28;21032;-73
2022/04/22 02:31:02;;;;;;;17.07;7.70;;;10.90;99.90;;;;;;5006251;28;20462;-72
2022/04/22 02:33:30;;;;;;;9.20;4.80;;;10.90;99.90;;;;;;5014069;28;20460;-73
2022/04/22 02:35:57;;;;;;;12.07;5.93;;;10.90;99.90;;;;;;5004277;28;20471;-71
2022/04/22 02:38:24;;;;;;;9.13;5.13;;;10.90;99.90;;;;;;5009755;28;20549;-72
2022/04/22 02:46:23;;;;;;;13.97;6.33;;;10.70;99.90;;;;;;4987144;28;20449;-68
2022/04/22 02:48:49;;;;;;;12.80;6.60;;;10.70;99.90;;;;;;5013149;28;20474;-69
2022/04/22 02:51:16;;;;;;;10.33;6.07;;;10.70;99.90;;;;;;5008150;28;20428;-70
2022/04/22 02:53:43;;;;;;;7.67;5.07;;;10.70;99.90;;;;;;5006980;28;21973;-69
2022/04/22 02:56:10;;;;;;;9.10;5.90;;;10.70;99.90;;;;;;5012648;28;20461;-70
2022/04/22 02:58:37;;;;;;;9.43;5.30;;;10.80;99.90;;;;;;5009660;28;20508;-69
2022/04/22 03:01:04;;;;;;;11.97;7.47;;;10.80;99.90;;;;;;4995358;28;21002;-69
2022/04/22 03:03:33;;;;;;;11.70;7.43;;;10.80;99.90;;;;;;5003384;28;20571;-69
2022/04/22 03:06:00;;;;;;;11.60;6.70;;;10.70;99.90;;;;;;5005446;28;20501;-69
2022/04/22 03:08:32;;;;;;;10.60;4.60;;;10.70;99.90;;;;;;5009690;28;21028;-70
2022/04/22 03:10:59;;;;;;;7.73;6.10;;;10.70;99.90;;;;;;5010428;28;20476;-70
2022/04/22 03:13:26;;;;;;;8.90;5.40;;;10.60;99.90;;;;;;5008571;28;20468;-70
2022/04/22 03:15:53;;;;;;;12.10;5.40;;;10.40;99.90;;;;;;4993621;28;20431;-70
2022/04/22 03:18:20;;;;;;;13.47;6.80;;;10.40;99.90;;;;;;4987669;28;20571;-70
2022/04/22 03:20:48;;;;;;;8.73;6.27;;;10.40;99.90;;;;;;4997912;28;20465;-69
2022/04/22 03:23:15;;;;;;;12.50;8.20;;;10.50;99.90;;;;;;5000565;28;20925;-70
2022/04/22 03:25:42;;;;;;;9.17;6.20;;;10.50;99.90;;;;;;5009479;28;20458;-69
2022/04/22 03:28:08;;;;;;;14.17;7.90;;;10.50;99.90;;;;;;4997010;28;20538;-70
2022/04/22 03:30:37;;;;;;;12.50;4.73;;;10.30;99.90;;;;;;5008355;28;20509;-70
2022/04/22 03:33:04;;;;;;;11.23;7.40;;;10.30;99.90;;;;;;5009093;28;20436;-69
2022/04/22 03:35:31;;;;;;;9.70;5.70;;;10.40;99.90;;;;;;4996623;28;20498;-69
2022/04/22 03:37:59;;;;;;;11.90;6.73;;;10.40;99.90;;;;;;5000360;28;20492;-70
2022/04/22 03:40:26;;;;;;;12.47;8.23;;;10.40;99.90;;;;;;4998955;28;20577;-69
2022/04/22 03:42:54;;;;;;;15.93;7.83;;;10.50;99.90;;;;;;5011440;28;20517;-69
2022/04/22 03:45:22;;;;;;;9.67;7.07;;;10.50;99.90;;;;;;5003180;28;20580;-69
2022/04/22 03:47:49;;;;;;;14.67;8.07;;;10.30;99.90;;;;;;5005287;28;20850;-70
2022/04/22 03:50:16;;;;;;;15.73;8.17;;;10.20;99.90;;;;;;5013261;28;20544;-70
2022/04/22 03:52:43;;;;;;;13.47;7.57;;;10.20;99.90;;;;;;5001998;28;20434;-70
2022/04/22 03:55:11;;;;;;;17.63;7.60;;;10.20;99.90;;;;;;5025576;28;20583;-70
2022/04/22 04:00:22;;;;;;;9.70;6.30;;;10.20;99.90;;;;;;5017495;28;20504;-73
2022/04/22 04:02:49;;;;;;;14.80;8.10;;;10.10;99.90;;;;;;5017743;28;21052;-72
2022/04/22 04:05:16;;;;;;;9.93;6.70;;;10.10;99.90;;;;;;5011794;28;20436;-73
2022/04/22 04:07:43;;;;;;;10.83;7.60;;;10.20;99.90;;;;;;5014804;28;20469;-72
2022/04/22 04:18:24;;;;;;;20.93;8.70;;;10.30;99.90;;;;;;5019987;28;20526;-73
2022/04/22 04:23:34;;;;;;;15.47;8.87;;;10.30;99.90;;;;;;5012360;28;20951;-72
2022/04/22 04:26:02;;;;;;;16.77;9.13;;;10.40;99.90;;;;;;5016159;28;20460;-73
2022/04/22 04:28:29;;;;;;;23.80;9.80;;;10.40;99.90;;;;;;5017204;28;20535;-73
2022/04/22 04:30:56;;;;;;;16.40;8.90;;;10.50;99.90;;;;;;5012314;28;20465;-72
2022/04/22 04:33:23;;;;;;;22.47;10.80;;;10.50;99.90;;;;;;5013108;28;20580;-72
2022/04/22 04:35:50;;;;;;;17.93;9.80;;;10.70;99.90;;;;;;5007372;28;20553;-71
2022/04/22 04:38:17;;;;;;;11.10;7.40;;;10.70;99.90;;;;;;5007169;28;20519;-72
2022/04/22 04:40:45;;;;;;;18.70;9.13;;;10.80;99.90;;;;;;5009364;28;20434;-73
2022/04/22 04:43:13;;;;;;;12.73;7.50;;;10.80;99.90;;;;;;5008261;28;20460;-72
2022/04/22 04:45:39;;;;;;;14.10;8.20;;;10.90;99.90;;;;;;5021007;28;20468;-72
2022/04/22 04:48:07;;;;;;;16.03;10.60;;;10.80;99.90;;;;;;5014759;28;21096;-72
2022/04/22 04:50:34;;;;;;;16.07;8.17;;;10.80;99.90;;;;;;5017657;28;20961;-72
2022/04/22 04:53:01;;;;;;;9.03;6.67;;;10.90;99.90;;;;;;5025204;28;20480;-72
2022/04/22 04:55:27;;;;;;;14.07;7.97;;;10.90;99.90;;;;;;5027416;28;20423;-72
2022/04/22 04:57:54;;;;;;;15.17;9.97;;;10.90;99.90;;;;;;5025124;28;20469;-72
2022/04/22 05:00:22;;;;;;;21.30;9.83;;;10.90;99.90;;;;;;5029896;28;20464;-72
2022/04/22 05:02:49;;;;;;;11.20;7.50;;;10.90;99.90;;;;;;5022438;28;20484;-73
2022/04/22 05:05:16;;;;;;;19.60;10.50;;;11.00;99.90;;;;;;5016087;28;20552;-72
2022/04/22 05:07:50;;;;;;;15.47;8.97;;;11.00;99.90;;;;;;5017067;28;21215;-72
2022/04/22 05:10:18;;;;;;;14.70;8.60;;;11.00;99.90;;;;;;5018217;28;20530;-72
2022/04/22 05:12:45;;;;;;;13.57;9.47;;;11.10;99.90;;;;;;5018421;28;20543;-71
2022/04/22 05:15:12;;;;;;;13.00;8.37;;;11.10;99.90;;;;;;5016907;28;20469;-72
2022/04/22 05:17:43;;;;;;;15.27;9.27;;;11.10;99.90;;;;;;5019584;28;20476;-72
2022/04/22 05:20:13;;;;;;;14.10;8.80;;;11.10;99.90;;;;;;5022790;28;20457;-72
2022/04/22 05:22:40;;;;;;;12.70;7.37;;;11.10;99.90;;;;;;5025473;28;20447;-73
2022/04/22 05:25:08;;;;;;;15.13;7.60;;;11.20;99.90;;;;;;5022619;28;21693;-71
2022/04/22 05:27:35;;;;;;;14.33;8.07;;;11.20;99.90;;;;;;5025515;28;20486;-72
2022/04/22 05:32:49;;;;;;;15.47;7.37;;;11.10;99.90;;;;;;5022518;28;20460;-73
2022/04/22 05:35:18;;;;;;;9.37;6.03;;;11.20;99.90;;;;;;5019505;28;20898;-73
2022/04/22 05:37:47;;;;;;;11.47;8.03;;;11.20;99.90;;;;;;5024488;28;20484;-73
2022/04/22 05:40:15;;;;;;;16.33;9.60;;;11.20;99.90;;;;;;5030152;28;20484;-73
2022/04/22 05:42:42;;;;;;;13.50;7.73;;;11.30;99.90;;;;;;5021089;28;21291;-73
2022/04/22 05:45:10;;;;;;;6.07;4.93;;;11.30;99.90;;;;;;5026196;28;20549;-73
2022/04/22 05:47:38;;;;;;;10.90;6.10;;;11.30;99.90;;;;;;5013654;28;20499;-73
2022/04/22 05:50:08;;;;;;;9.50;6.63;;;11.30;99.90;;;;;;5033234;22;20453;-72
2022/04/22 05:52:38;;;;;;;7.83;4.53;;;11.30;99.90;;;;;;5014771;28;20536;-73
2022/04/22 05:55:09;;;;;;;8.27;6.40;;;11.30;99.90;;;;;;5022675;28;20910;-73
2022/04/22 05:57:37;;;;;;;7.03;3.50;;;11.20;99.90;;;;;;5017533;28;21091;-73
2022/04/22 06:00:10;;;;;;;11.97;6.37;;;11.30;99.90;;;;;;5018325;28;20977;-74
2022/04/22 06:02:37;;;;;;;11.90;8.30;;;11.30;99.90;;;;;;5017423;28;20493;-74
2022/04/22 06:05:06;;;;;;;10.63;5.00;;;11.30;99.90;;;;;;5025660;28;20461;-75
2022/04/22 06:07:33;;;;;;;12.83;6.27;;;11.30;99.90;;;;;;5021896;28;20957;-74
2022/04/22 06:12:46;;;;;;;10.23;6.30;;;11.40;99.90;;;;;;5016801;28;20485;-75
2022/04/22 06:15:12;;;;;;;4.83;2.30;;;11.40;99.90;;;;;;5022479;28;20461;-74
2022/04/22 06:17:39;;;;;;;8.90;7.10;;;11.40;99.90;;;;;;5027944;28;20438;-74
2022/04/22 06:20:09;;;;;;;7.67;5.03;;;11.50;99.90;;;;;;5016781;28;20488;-74
2022/04/22 06:22:36;;;;;;;13.50;7.10;;;11.50;99.90;;;;;;5022749;28;20524;-74
2022/04/22 06:25:04;;;;;;;11.30;6.80;;;11.50;99.90;;;;;;5021368;28;20465;-75
2022/04/22 06:27:35;;;;;;;9.77;7.10;;;11.50;99.90;;;;;;5022927;28;20435;-73
2022/04/22 06:30:06;;;;;;;9.87;7.67;;;11.60;99.90;;;;;;5017158;28;20436;-72
2022/04/22 06:32:33;;;;;;;11.87;6.20;;;11.90;99.90;;;;;;5021502;28;20639;-73
2022/04/22 06:35:00;;;;;;;4.80;3.17;;;12.20;99.90;;;;;;5021936;28;20538;-73
2022/04/22 06:37:33;;;;;;;10.27;5.63;;;12.30;99.90;;;;;;5017216;28;20467;-72
2022/04/22 06:48:18;;;;;;;8.73;7.00;;;12.20;99.90;;;;;;5016761;28;20527;-73
2022/04/22 06:50:46;;;;;;;10.20;5.50;;;12.00;99.90;;;;;;5015399;28;20541;-73
2022/04/22 06:53:16;;;;;;;10.03;6.57;;;12.00;99.90;;;;;;5022071;28;20519;-74
2022/04/22 06:55:43;;;;;;;9.40;6.97;;;12.30;99.90;;;;;;5017011;28;20456;-73
2022/04/22 06:58:12;;;;;;;9.30;4.23;;;12.30;99.90;;;;;;5020822;28;20507;-73
2022/04/22 07:00:39;;;;;;;7.47;6.07;;;12.50;99.90;;;;;;5020888;28;20500;-74
2022/04/22 07:03:07;;;;;;;11.93;7.00;;;12.70;99.90;;;;;;5016941;28;20470;-73
2022/04/22 07:05:35;;;;;;;4.50;3.53;;;12.90;99.90;;;;;;5016486;28;20472;-73
2022/04/22 07:08:02;;;;;;;11.67;7.13;;;13.10;99.90;;;;;;5020247;28;20456;-74
2022/04/22 07:10:31;;;;;;;8.90;5.50;;;13.70;99.90;;;;;;5016591;28;20477;-74
2022/04/22 07:12:59;;;;;;;7.23;4.47;;;13.90;99.90;;;;;;5014817;28;20472;-74
2022/04/22 07:15:26;;;;;;;5.50;3.83;;;14.10;99.90;;;;;;5020785;28;20457;-74
2022/04/22 07:17:54;;;;;;;6.83;3.80;;;13.80;99.90;;;;;;5016690;28;20466;-74
2022/04/22 07:20:22;;;;;;;9.03;5.23;;;13.40;99.90;;;;;;5025940;28;21143;-74
2022/04/22 07:22:49;;;;;;;6.77;4.97;;;13.70;99.90;;;;;;5018405;28;21171;-74
2022/04/22 07:25:16;;;;;;;9.70;6.90;;;13.70;99.90;;;;;;5018577;28;20462;-75
2022/04/22 07:27:46;;;;;;;16.77;7.27;;;13.60;99.90;;;;;;5017023;28;20983;-75
2022/04/22 07:30:15;;;;;;;10.43;6.83;;;13.50;99.90;;;;;;5019436;28;20844;-75
2022/04/22 07:32:46;;;;;;;9.27;5.73;;;13.40;99.90;;;;;;5022847;28;21033;-74
2022/04/22 07:35:14;;;;;;;11.60;7.90;;;13.40;99.90;;;;;;5024552;28;20851;-75
2022/04/22 07:37:41;;;;;;;12.73;5.80;;;13.40;99.90;;;;;;5016070;28;20887;-73
2022/04/22 07:40:09;;;;;;;10.50;6.00;;;13.40;99.90;;;;;;5017881;28;20811;-73
2022/04/22 07:42:37;;;;;;;13.40;7.17;;;13.40;99.90;;;;;;5022031;28;20457;-75
2022/04/22 07:47:51;;;;;;;13.70;7.50;;;13.60;99.90;;;;;;5019298;28;20508;-75
2022/04/22 07:50:19;;;;;;;9.77;6.70;;;13.60;99.90;;;;;;5016930;28;20821;-74
2022/04/22 07:52:47;;;;;;;7.47;5.10;;;13.60;99.90;;;;;;5023388;28;20453;-74
2022/04/22 07:55:15;;;;;;;12.37;7.27;;;13.40;99.90;;;;;;5020704;28;20463;-74
2022/04/22 07:57:42;;;;;;;12.17;7.83;;;13.50;99.90;;;;;;5017960;28;20465;-75
2022/04/22 08:00:11;;;;;;;10.60;6.70;;;13.40;99.90;;;;;;5020601;28;20956;-74
2022/04/22 08:02:40;;;;;;;7.87;5.43;;;13.40;99.90;;;;;;5019544;28;20503;-75
2022/04/22 08:05:09;;;;;;;10.47;6.93;;;13.50;99.90;;;;;;5020187;28;20511;-74
2022/04/22 08:07:36;;;;;;;12.60;7.87;;;13.40;99.90;;;;;;5016287;28;20464;-75
2022/04/22 08:10:03;;;;;;;10.40;6.80;;;13.60;99.90;;;;;;5021312;28;20443;-74
2022/04/22 08:12:29;;;;;;;8.60;5.47;;;14.20;99.90;;;;;;5026021;28;20460;-75
2022/04/22 08:14:57;;;;;;;8.57;5.83;;;14.10;99.90;;;;;;5021299;28;20473;-73
2022/04/22 08:17:25;;;;;;;10.77;4.80;;;14.00;99.90;;;;;;5019171;28;20457;-74
2022/04/22 08:19:52;;;;;;;12.67;7.60;;;14.60;99.90;;;;;;5025236;28;20486;-74
2022/04/22 08:22:18;;;;;;;5.10;3.80;;;14.40;99.90;;;;;;5020505;28;20984;-75
2022/04/22 08:24:45;;;;;;;8.83;5.33;;;14.30;99.90;;;;;;5017215;28;20525;-74
2022/04/22 08:27:12;;;;;;;15.27;7.40;;;14.20;99.90;;;;;;5022703;28;20461;-74
2022/04/22 08:29:38;;;;;;;4.43;3.90;;;14.10;99.90;;;;;;5019639;28;20465;-74
2022/04/22 08:32:06;;;;;;;13.60;7.53;;;13.90;99.90;;;;;;5020672;28;20541;-74
2022/04/22 08:34:34;;;;;;;6.17;4.20;;;13.90;99.90;;;;;;5011781;28;20543;-75
2022/04/22 08:37:00;;;;;;;4.67;4.17;;;14.00;99.90;;;;;;5024444;28;20498;-74
2022/04/22 08:39:27;;;;;;;9.13;6.50;;;14.70;99.90;;;;;;5015675;28;20815;-76
2022/04/22 08:41:54;;;;;;;4.30;3.70;;;15.00;99.90;;;;;;5026135;28;21009;-75
2022/04/22 08:44:23;;;;;;;6.50;5.10;;;15.50;99.90;;;;;;5016579;28;20461;-75
2022/04/22 08:52:22;;;;;;;9.73;6.17;;;14.90;99.90;;;;;;5022945;28;20855;-75
2022/04/22 08:54:52;;;;;;;8.17;5.33;;;14.70;99.90;;;;;;5026885;28;20457;-75
2022/04/22 08:57:20;;;;;;;5.50;4.10;;;14.70;99.90;;;;;;5015265;28;20501;-74
2022/04/22 08:59:47;;;;;;;10.40;6.90;;;14.60;99.90;;;;;;5029536;28;20477;-75
2022/04/22 09:02:16;;;;;;;10.77;7.00;;;15.20;99.90;;;;;;5017147;28;20485;-76
2022/04/22 09:04:44;;;;;;;8.13;5.80;;;16.40;99.90;;;;;;5021152;28;20832;-75
2022/04/22 09:07:13;;;;;;;5.20;3.23;;;16.90;99.90;;;;;;5023269;28;20472;-74
2022/04/22 09:09:40;;;;;;;8.83;6.80;;;17.00;99.90;;;;;;5024943;28;20462;-74
2022/04/22 09:12:08;;;;;;;9.30;5.13;;;17.00;99.90;;;;;;5017462;28;20485;-75
2022/04/22 09:14:35;;;;;;;10.93;7.67;;;16.70;99.90;;;;;;5020916;28;20457;-73
2022/04/22 09:17:02;;;;;;;6.67;4.20;;;16.30;99.90;;;;;;5023124;28;20461;-75
2022/04/22 09:19:35;;;;;;;5.20;4.30;;;16.30;99.90;;;;;;5028118;28;20519;-75
2022/04/22 09:22:03;;;;;;;8.40;6.27;;;17.10;99.90;;;;;;5023619;28;20486;-74
2022/04/22 09:24:30;;;;;;;9.70;7.57;;;16.90;99.90;;;;;;5022164;28;20820;-75
2022/04/22 09:27:08;;;;;;;9.03;6.80;;;16.60;99.90;;;;;;5012413;28;20462;-75
2022/04/22 09:29:42;;;;;;;11.53;7.23;;;17.20;99.90;;;;;;5017324;28;20458;-75
2022/04/22 09:32:11;;;;;;;10.50;7.60;;;17.30;99.90;;;;;;5018891;28;20531;-75
2022/04/22 09:34:42;;;;;;;10.60;7.33;;;16.70;99.90;;;;;;5025601;28;20515;-75
2022/04/22 09:42:47;;;;;;;4.63;3.63;;;15.60;99.90;;;;;;5022566;28;20449;-74
2022/04/22 09:45:14;;;;;;;6.67;5.60;;;15.50;99.90;;;;;;5017545;28;20479;-75
2022/04/22 09:47:41;;;;;;;14.07;9.10;;;15.60;99.90;;;;;;5012956;28;20458;-74
2022/04/22 09:50:11;;;;;;;9.77;4.50;;;15.70;99.90;;;;;;5021560;28;20474;-72
2022/04/22 09:52:43;;;;;;;11.10;6.40;;;15.60;99.90;;;;;;5023439;28;20515;-73
2022/04/22 09:55:13;;;;;;;8.33;4.90;;;15.50;99.90;;;;;;5022106;28;20457;-73
2022/04/22 09:57:55;;;;;;;5.87;5.10;;;15.50;99.90;;;;;;5021988;28;20458;-73
2022/04/22 10:00:23;;;;;;;5.73;5.07;;;15.30;99.90;;;;;;5017556;28;20486;-76
2022/04/22 10:02:51;;;;;;;7.10;3.93;;;15.30;99.90;;;;;;5009160;28;20493;-74
2022/04/22 10:05:19;;;;;;;7.90;5.83;;;15.30;99.90;;;;;;5021490;28;21005;-74
2022/04/22 10:07:51;;;;;;;13.30;6.90;;;15.30;99.90;;;;;;5020992;28;20427;-75
2022/04/22 10:10:21;;;;;;;9.20;6.13;;;15.40;99.90;;;;;;5018242;28;21143;-74
2022/04/22 10:12:51;;;;;;;7.97;5.03;;;15.60;99.90;;;;;;5027950;28;20544;-74
2022/04/22 10:15:20;;;;;;;4.80;3.40;;;15.80;99.90;;;;;;5020381;28;20464;-75
2022/04/22 10:17:48;;;;;;;10.80;5.80;;;15.70;99.90;;;;;;5020550;28;20549;-75
2022/04/22 10:20:15;;;;;;;7.40;5.03;;;15.40;99.90;;;;;;5018343;28;20521;-76
2022/04/22 10:22:42;;;;;;;6.87;5.50;;;15.30;99.90;;;;;;5020292;28;21052;-75
2022/04/22 10:25:10;;;;;;;10.50;7.67;;;15.40;99.90;;;;;;5024166;28;20513;-74
2022/04/22 10:27:38;;;;;;;6.70;5.77;;;15.60;99.90;;;;;;5017851;28;20458;-76
2022/04/22 10:30:06;;;;;;;10.97;6.67;;;15.80;99.90;;;;;;5012184;28;20468;-75
2022/04/22 10:32:35;;;;;;;7.53;6.43;;;16.10;99.90;;;;;;5012585;28;20588;-75
2022/04/22 10:35:03;;;;;;;7.83;6.23;;;16.50;99.90;;;;;;5019965;28;20469;-73
2022/04/22 10:37:32;;;;;;;10.77;6.83;;;17.00;99.90;;;;;;5015014;28;20492;-76
2022/04/22 10:39:59;;;;;;;9.50;6.60;;;17.20;99.90;;;;;;5013455;28;20861;-76
2022/04/22 10:42:35;;;;;;;8.13;5.90;;;17.20;99.90;;;;;;5013640;28;20546;-76
2022/04/22 10:47:49;;;;;;;7.77;4.70;;;16.30;99.90;;;;;;5022017;28;20519;-75
2022/04/22 10:50:27;;;;;;;5.10;4.70;;;15.90;99.90;;;;;;5021190;28;20473;-75
2022/04/22 10:53:03;;;;;;;7.27;3.80;;;15.60;99.90;;;;;;5021591;28;20877;-75
2022/04/22 10:55:31;;;;;;;3.20;1.90;;;15.30;99.90;;;;;;5020684;28;20460;-75
2022/04/22 10:58:23;;;;;;;7.57;5.00;;;15.30;99.90;;;;;;5027279;28;20467;-76
2022/04/22 11:00:51;;;;;;;6.93;4.63;;;15.30;99.90;;;;;;5026677;28;20488;-74
2022/04/22 11:03:19;;;;;;;13.43;4.80;;;15.30;99.90;;;;;;5011670;28;20466;-73
2022/04/22 11:05:48;;;;;;;10.57;5.70;;;15.20;99.90;;;;;;5020020;28;20549;-75
2022/04/22 11:08:41;;;;;;;5.50;4.40;;;15.20;99.90;;;;;;5025326;28;20534;-75
2022/04/22 11:11:15;;;;;;;5.50;4.07;;;15.00;99.90;;;;;;5016604;28;20548;-75
2022/04/22 11:13:45;;;;;;;7.47;6.63;;;14.70;99.90;;;;;;5022875;28;20431;-75
2022/04/22 11:16:23;;;;;;;10.10;7.13;;;14.90;99.90;;;;;;5024165;28;20468;-75
2022/04/22 11:19:36;;;;;;;9.87;5.37;;;15.00;99.90;;;;;;5019566;28;20535;-76
2022/04/22 11:22:05;;;;;;;10.50;5.10;;;15.30;99.90;;;;;;5012735;28;21040;-75
2022/04/22 11:24:33;;;;;;;21.10;7.43;;;15.50;99.90;;;;;;5014357;28;20435;-76
2022/04/22 11:27:05;;;;;;;5.67;4.90;;;15.60;99.90;;;;;;5009428;28;20468;-76
2022/04/22 11:29:33;;;;;;;8.07;6.23;;;15.40;99.90;;;;;;5013906;28;21315;-76
2022/04/22 11:32:27;;;;;;;12.97;6.30;;;15.30;99.90;;;;;;5012354;28;20481;-75
2022/04/22 11:35:16;;;;;;;6.77;4.33;;;15.30;99.90;;;;;;5002303;28;20465;-76
2022/04/22 11:37:43;;;;;;;15.60;8.03;;;15.40;99.90;;;;;;5012512;28;20851;-74
2022/04/22 11:40:10;;;;;;;8.70;4.80;;;15.10;99.90;;;;;;5010285;28;20494;-75
2022/04/22 11:42:50;;;;;;;9.23;6.57;;;15.00;99.90;;;;;;5017433;28;21037;-75
2022/04/22 11:45:17;;;;;;;12.37;8.80;;;15.10;99.90;;;;;;5016176;28;20980;-75
2022/04/22 11:47:44;;;;;;;7.30;6.10;;;15.20;99.90;;;;;;5015870;28;20584;-75
2022/04/22 11:50:18;;;;;;;6.80;5.37;;;15.50;99.90;;;;;;5008060;28;21470;-76
2022/04/22 11:52:45;;;;;;;9.77;6.10;;;15.80;99.90;;;;;;5021100;28;20864;-74
2022/04/22 11:55:12;;;;;;;11.53;6.33;;;15.60;99.90;;;;;;5014205;28;20939;-74
2022/04/22 11:57:40;;;;;;;11.87;5.63;;;15.60;99.90;;;;;;5008835;28;20457;-75
2022/04/22 12:05:42;;;;;;;6.23;2.80;;;15.60;99.90;;;;;;5015738;28;20482;-75
2022/04/22 12:08:13;;;;;;;7.13;4.23;;;15.70;99.90;;;;;;5011825;28;20455;-75
2022/04/22 12:10:40;;;;;;;16.60;5.93;;;15.70;99.90;;;;;;5010949;28;20481;-75
2022/04/22 12:13:08;;;;;;;9.23;4.60;;;15.80;99.90;;;;;;5012770;28;20483;-73
2022/04/22 12:15:39;;;;;;;12.93;6.37;;;16.00;99.90;;;;;;5012454;28;20435;-74
2022/04/22 12:18:07;;;;;;;4.13;3.73;;;16.10;99.90;;;;;;5007920;28;20463;-72
2022/04/22 12:20:35;;;;;;;5.27;3.07;;;15.90;99.90;;;;;;5017304;28;20493;-73
2022/04/22 12:23:02;;;;;;;7.60;5.00;;;15.50;99.90;;;;;;5022278;28;20492;-74
2022/04/22 12:25:29;;;;;;;5.27;4.33;;;15.40;99.90;;;;;;5010053;28;20474;-72
2022/04/22 12:28:07;;;;;;;15.23;7.50;;;15.60;99.90;;;;;;5019363;28;20469;-74
2022/04/22 12:30:36;;;;;;;6.47;5.20;;;15.80;99.90;;;;;;5023792;28;20500;-73
2022/04/22 12:33:03;;;;;;;8.03;6.07;;;15.80;99.90;;;;;;5021381;28;20460;-75
2022/04/22 12:35:31;;;;;;;3.23;2.97;;;15.60;99.90;;;;;;5024044;28;20477;-73
2022/04/22 12:38:04;;;;;;;7.90;4.00;;;15.50;99.90;;;;;;5027996;28;20465;-74
2022/04/22 12:40:43;;;;;;;4.23;3.50;;;15.50;99.90;;;;;;5019484;28;21140;-75
2022/04/22 12:43:27;;;;;;;8.73;4.10;;;16.10;99.90;;;;;;5015226;28;20467;-73
2022/04/22 12:54:22;;;;;;;9.43;3.37;;;15.70;99.90;;;;;;5017460;28;20473;-75
2022/04/22 12:56:55;;;;;;;11.37;6.10;;;15.40;99.90;;;;;;5016713;28;20457;-74
2022/04/22 12:59:22;;;;;;;4.90;3.77;;;15.20;99.90;;;;;;5009482;28;20472;-74
2022/04/22 13:01:50;;;;;;;5.87;2.23;;;15.20;99.90;;;;;;5007915;28;20497;-75
2022/04/22 13:04:22;;;;;;;6.87;4.20;;;15.00;99.90;;;;;;5010300;28;20469;-74
2022/04/22 13:06:51;;;;;;;3.80;3.40;;;14.90;99.90;;;;;;5010340;28;20494;-74
2022/04/22 13:09:20;;;;;;;3.00;2.80;;;14.80;99.90;;;;;;5015906;28;20536;-73
2022/04/22 13:11:49;;;;;;;7.97;6.40;;;14.80;99.90;;;;;;5012435;28;20477;-75
2022/04/22 13:14:16;;;;;;;5.10;4.23;;;14.80;99.90;;;;;;5012967;28;20515;-74
2022/04/22 13:16:42;;;;;;;3.80;2.30;;;14.90;99.90;;;;;;5005966;28;20471;-72
2022/04/22 13:19:11;;;;;;;8.93;5.63;;;15.10;99.90;;;;;;5015365;28;20450;-75
2022/04/22 13:21:37;;;;;;;7.70;5.70;;;15.40;99.90;;;;;;5012930;28;20493;-75
2022/04/22 13:24:06;;;;;;;5.47;4.93;;;15.80;99.90;;;;;;5010271;28;20526;-73
2022/04/22 13:26:33;;;;;;;7.47;4.30;;;15.70;99.90;;;;;;5005568;28;20910;-74
2022/04/22 13:29:00;;;;;;;7.30;5.17;;;15.60;99.90;;;;;;5006497;28;21170;-75
2022/04/22 13:31:26;;;;;;;2.23;2.03;;;15.70;99.90;;;;;;5004775;28;21154;-76
2022/04/22 13:33:53;;;;;;;2.83;2.40;;;15.90;99.90;;;;;;5012900;28;20457;-74
2022/04/22 13:36:20;;;;;;;7.30;4.47;;;15.90;99.90;;;;;;5012891;28;20543;-74
2022/04/22 13:38:48;;;;;;;2.63;2.43;;;15.80;99.90;;;;;;5002690;28;22645;-75
2022/04/22 13:41:17;;;;;;;6.43;4.73;;;15.80;99.90;;;;;;5015724;28;20463;-73
2022/04/22 13:43:43;;;;;;;2.77;2.10;;;16.30;99.90;;;;;;5010781;28;23296;-74
2022/04/22 13:54:23;;;;;;;6.63;4.80;;;17.70;99.90;;;;;;5024749;28;20452;-75
2022/04/22 13:56:51;;;;;;;10.53;6.87;;;17.10;99.90;;;;;;5027668;28;20477;-73
2022/04/22 13:59:17;;;;;;;7.27;5.60;;;16.40;99.90;;;;;;5029395;28;20476;-74
2022/04/22 14:01:44;;;;;;;7.00;4.77;;;16.80;99.90;;;;;;5020882;28;20496;-74
2022/04/22 14:04:11;;;;;;;11.13;4.53;;;17.50;99.90;;;;;;5021779;28;20457;-74
2022/04/22 14:06:38;;;;;;;8.07;6.13;;;17.70;99.90;;;;;;5019762;28;20665;-74